sensor_id;sensor_type;location;lat;lon;timestamp;temperature;humidity
73665;DHT22;61964;52.052;4.474;2024-02-28T00:00:39;6.14;77.41
73665;DHT22;61964;52.052;4.474;2024-02-28T00:03:05;6.13;77.47
73665;DHT22;61964;52.052;4.474;2024-02-28T00:05:31;6.13;77.52
73665;DHT22;61964;52.052;4.474;2024-02-28T00:07:57;6.10;77.58
73665;DHT22;61964;52.052;4.474;2024-02-28T00:10:23;6.13;77.63
73665;DHT22;61964;52.052;4.474;2024-02-28T00:12:49;6.14;77.81
73665;DHT22;61964;52.052;4.474;2024-02-28T00:15:14;6.17;77.82
73665;DHT22;61964;52.052;4.474;2024-02-28T00:17:41;6.18;77.81
73665;DHT22;61964;52.052;4.474;2024-02-28T00:20:08;6.18;77.83
73665;DHT22;61964;52.052;4.474;2024-02-28T00:22:37;6.21;77.85
73665;DHT22;61964;52.052;4.474;2024-02-28T00:25:03;6.27;77.66
73665;DHT22;61964;52.052;4.474;2024-02-28T00:27:34;6.24;77.52
73665;DHT22;61964;52.052;4.474;2024-02-28T00:30:00;6.20;77.44
73665;DHT22;61964;52.052;4.474;2024-02-28T00:32:26;6.10;77.38
73665;DHT22;61964;52.052;4.474;2024-02-28T00:34:52;6.06;77.48
73665;DHT22;61964;52.052;4.474;2024-02-28T00:37:18;5.97;77.64
73665;DHT22;61964;52.052;4.474;2024-02-28T00:39:45;5.95;77.85
73665;DHT22;61964;52.052;4.474;2024-02-28T00:42:10;5.89;78.01
73665;DHT22;61964;52.052;4.474;2024-02-28T00:44:36;5.86;78.07
73665;DHT22;61964;52.052;4.474;2024-02-28T00:47:02;5.82;78.07
73665;DHT22;61964;52.052;4.474;2024-02-28T00:49:28;5.72;78.19
73665;DHT22;61964;52.052;4.474;2024-02-28T00:51:54;5.63;78.35
73665;DHT22;61964;52.052;4.474;2024-02-28T00:54:19;5.58;78.54
73665;DHT22;61964;52.052;4.474;2024-02-28T00:56:47;5.55;78.88
73665;DHT22;61964;52.052;4.474;2024-02-28T00:59:13;5.55;79.10
73665;DHT22;61964;52.052;4.474;2024-02-28T01:01:40;5.56;79.29
73665;DHT22;61964;52.052;4.474;2024-02-28T01:04:05;5.66;79.29
73665;DHT22;61964;52.052;4.474;2024-02-28T01:06:31;5.69;79.54
73665;DHT22;61964;52.052;4.474;2024-02-28T01:08:57;5.76;79.61
73665;DHT22;61964;52.052;4.474;2024-02-28T01:11:23;5.80;79.48
73665;DHT22;61964;52.052;4.474;2024-02-28T01:13:49;5.86;79.47
73665;DHT22;61964;52.052;4.474;2024-02-28T01:16:15;5.99;79.39
73665;DHT22;61964;52.052;4.474;2024-02-28T01:18:40;6.06;79.30
73665;DHT22;61964;52.052;4.474;2024-02-28T01:21:06;6.11;79.17
73665;DHT22;61964;52.052;4.474;2024-02-28T01:23:32;6.16;79.12
73665;DHT22;61964;52.052;4.474;2024-02-28T01:25:58;6.23;79.03
73665;DHT22;61964;52.052;4.474;2024-02-28T01:28:24;6.28;78.93
73665;DHT22;61964;52.052;4.474;2024-02-28T01:30:49;6.41;78.61
73665;DHT22;61964;52.052;4.474;2024-02-28T01:33:15;6.47;78.54
73665;DHT22;61964;52.052;4.474;2024-02-28T01:35:41;6.54;78.38
73665;DHT22;61964;52.052;4.474;2024-02-28T01:38:07;6.65;78.06
73665;DHT22;61964;52.052;4.474;2024-02-28T01:40:33;6.68;78.02
73665;DHT22;61964;52.052;4.474;2024-02-28T01:43:11;6.72;77.89
73665;DHT22;61964;52.052;4.474;2024-02-28T01:45:37;6.81;77.39
73665;DHT22;61964;52.052;4.474;2024-02-28T01:48:06;6.86;77.39
73665;DHT22;61964;52.052;4.474;2024-02-28T01:50:33;6.91;77.24
73665;DHT22;61964;52.052;4.474;2024-02-28T01:53:01;6.91;77.36
73665;DHT22;61964;52.052;4.474;2024-02-28T01:55:28;6.95;77.49
73665;DHT22;61964;52.052;4.474;2024-02-28T01:57:54;6.92;77.35
73665;DHT22;61964;52.052;4.474;2024-02-28T02:00:21;6.97;77.21
73665;DHT22;61964;52.052;4.474;2024-02-28T02:02:48;7.05;76.99
73665;DHT22;61964;52.052;4.474;2024-02-28T02:05:14;7.03;77.14
73665;DHT22;61964;52.052;4.474;2024-02-28T02:07:42;7.07;77.19
73665;DHT22;61964;52.052;4.474;2024-02-28T02:10:08;7.07;77.22
73665;DHT22;61964;52.052;4.474;2024-02-28T02:12:38;7.12;76.88
73665;DHT22;61964;52.052;4.474;2024-02-28T02:15:04;7.10;77.12
73665;DHT22;61964;52.052;4.474;2024-02-28T02:17:30;7.17;76.93
73665;DHT22;61964;52.052;4.474;2024-02-28T02:19:56;7.15;77.09
73665;DHT22;61964;52.052;4.474;2024-02-28T02:22:23;7.15;76.85
73665;DHT22;61964;52.052;4.474;2024-02-28T02:24:52;7.15;76.96
73665;DHT22;61964;52.052;4.474;2024-02-28T02:27:18;7.09;77.15
73665;DHT22;61964;52.052;4.474;2024-02-28T02:29:44;7.12;77.07
73665;DHT22;61964;52.052;4.474;2024-02-28T02:32:10;7.07;77.23
73665;DHT22;61964;52.052;4.474;2024-02-28T02:34:35;6.96;77.20
73665;DHT22;61964;52.052;4.474;2024-02-28T02:37:01;6.97;77.40
73665;DHT22;61964;52.052;4.474;2024-02-28T02:39:27;6.95;77.33
73665;DHT22;61964;52.052;4.474;2024-02-28T02:41:53;6.91;77.47
73665;DHT22;61964;52.052;4.474;2024-02-28T02:44:19;6.81;77.76
73665;DHT22;61964;52.052;4.474;2024-02-28T02:46:45;6.78;77.98
73665;DHT22;61964;52.052;4.474;2024-02-28T02:49:10;6.82;78.11
73665;DHT22;61964;52.052;4.474;2024-02-28T02:51:36;6.81;78.39
73665;DHT22;61964;52.052;4.474;2024-02-28T02:54:02;6.91;78.36
73665;DHT22;61964;52.052;4.474;2024-02-28T02:56:28;6.99;78.25
73665;DHT22;61964;52.052;4.474;2024-02-28T02:58:54;7.05;78.41
73665;DHT22;61964;52.052;4.474;2024-02-28T03:01:20;7.09;78.23
73665;DHT22;61964;52.052;4.474;2024-02-28T03:03:46;7.16;78.24
73665;DHT22;61964;52.052;4.474;2024-02-28T03:06:11;7.20;78.17
73665;DHT22;61964;52.052;4.474;2024-02-28T03:08:37;7.26;78.03
73665;DHT22;61964;52.052;4.474;2024-02-28T03:11:03;7.33;78.03
73665;DHT22;61964;52.052;4.474;2024-02-28T03:13:32;7.37;77.78
73665;DHT22;61964;52.052;4.474;2024-02-28T03:15:58;7.37;77.67
73665;DHT22;61964;52.052;4.474;2024-02-28T03:18:23;7.44;77.47
73665;DHT22;61964;52.052;4.474;2024-02-28T03:20:49;7.51;77.41
73665;DHT22;61964;52.052;4.474;2024-02-28T03:23:15;7.51;77.27
73665;DHT22;61964;52.052;4.474;2024-02-28T03:25:41;7.60;77.04
73665;DHT22;61964;52.052;4.474;2024-02-28T03:28:07;7.56;77.20
73665;DHT22;61964;52.052;4.474;2024-02-28T03:30:32;7.58;77.05
73665;DHT22;61964;52.052;4.474;2024-02-28T03:32:58;7.56;77.14
73665;DHT22;61964;52.052;4.474;2024-02-28T03:35:24;7.63;77.08
73665;DHT22;61964;52.052;4.474;2024-02-28T03:37:50;7.66;76.91
73665;DHT22;61964;52.052;4.474;2024-02-28T03:40:15;7.61;76.99
73665;DHT22;61964;52.052;4.474;2024-02-28T03:42:41;7.60;77.08
73665;DHT22;61964;52.052;4.474;2024-02-28T03:45:08;7.63;76.97
73665;DHT22;61964;52.052;4.474;2024-02-28T03:47:33;7.58;76.96
73665;DHT22;61964;52.052;4.474;2024-02-28T03:49:59;7.61;77.03
73665;DHT22;61964;52.052;4.474;2024-02-28T03:52:27;7.61;77.08
73665;DHT22;61964;52.052;4.474;2024-02-28T03:54:54;7.61;77.23
73665;DHT22;61964;52.052;4.474;2024-02-28T03:57:20;7.64;77.25
73665;DHT22;61964;52.052;4.474;2024-02-28T03:59:46;7.63;77.33
73665;DHT22;61964;52.052;4.474;2024-02-28T04:02:12;7.64;77.36
73665;DHT22;61964;52.052;4.474;2024-02-28T04:04:38;7.73;77.17
73665;DHT22;61964;52.052;4.474;2024-02-28T04:07:04;7.75;77.12
73665;DHT22;61964;52.052;4.474;2024-02-28T04:09:30;7.74;77.12
73665;DHT22;61964;52.052;4.474;2024-02-28T04:11:56;7.79;77.11
73665;DHT22;61964;52.052;4.474;2024-02-28T04:14:21;7.79;77.05
73665;DHT22;61964;52.052;4.474;2024-02-28T04:16:47;7.75;77.37
73665;DHT22;61964;52.052;4.474;2024-02-28T04:19:16;7.77;77.11
73665;DHT22;61964;52.052;4.474;2024-02-28T04:21:41;7.82;77.09
73665;DHT22;61964;52.052;4.474;2024-02-28T04:24:08;7.91;77.08
73665;DHT22;61964;52.052;4.474;2024-02-28T04:26:35;7.97;76.94
73665;DHT22;61964;52.052;4.474;2024-02-28T04:29:01;7.97;76.94
73665;DHT22;61964;52.052;4.474;2024-02-28T04:31:30;8.03;76.83
73665;DHT22;61964;52.052;4.474;2024-02-28T04:33:57;8.05;76.51
73665;DHT22;61964;52.052;4.474;2024-02-28T04:36:23;8.06;76.63
73665;DHT22;61964;52.052;4.474;2024-02-28T04:38:48;8.06;76.46
73665;DHT22;61964;52.052;4.474;2024-02-28T04:41:14;8.06;76.59
73665;DHT22;61964;52.052;4.474;2024-02-28T04:43:40;8.03;76.67
73665;DHT22;61964;52.052;4.474;2024-02-28T04:46:06;8.01;76.93
73665;DHT22;61964;52.052;4.474;2024-02-28T04:48:32;8.05;76.74
73665;DHT22;61964;52.052;4.474;2024-02-28T04:50:59;8.05;76.63
73665;DHT22;61964;52.052;4.474;2024-02-28T04:53:24;8.02;76.85
73665;DHT22;61964;52.052;4.474;2024-02-28T04:55:50;7.98;77.19
73665;DHT22;61964;52.052;4.474;2024-02-28T04:58:16;8.05;77.08
73665;DHT22;61964;52.052;4.474;2024-02-28T05:00:42;8.06;77.05
73665;DHT22;61964;52.052;4.474;2024-02-28T05:03:08;8.08;77.17
73665;DHT22;61964;52.052;4.474;2024-02-28T05:05:34;8.12;77.06
73665;DHT22;61964;52.052;4.474;2024-02-28T05:08:00;8.08;77.42
73665;DHT22;61964;52.052;4.474;2024-02-28T05:10:25;8.08;77.30
73665;DHT22;61964;52.052;4.474;2024-02-28T05:12:51;8.15;76.95
73665;DHT22;61964;52.052;4.474;2024-02-28T05:15:17;8.13;76.97
73665;DHT22;61964;52.052;4.474;2024-02-28T05:17:43;8.12;77.31
73665;DHT22;61964;52.052;4.474;2024-02-28T05:20:09;8.15;77.18
73665;DHT22;61964;52.052;4.474;2024-02-28T05:22:35;8.19;77.11
73665;DHT22;61964;52.052;4.474;2024-02-28T05:25:01;8.13;77.23
73665;DHT22;61964;52.052;4.474;2024-02-28T05:27:26;8.06;77.51
73665;DHT22;61964;52.052;4.474;2024-02-28T05:29:53;8.10;77.56
73665;DHT22;61964;52.052;4.474;2024-02-28T05:32:18;8.13;77.52
73665;DHT22;61964;52.052;4.474;2024-02-28T05:34:45;8.08;77.77
73665;DHT22;61964;52.052;4.474;2024-02-28T05:37:11;8.08;78.14
73665;DHT22;61964;52.052;4.474;2024-02-28T05:39:37;8.08;78.15
73665;DHT22;61964;52.052;4.474;2024-02-28T05:42:03;8.13;78.29
73665;DHT22;61964;52.052;4.474;2024-02-28T05:44:29;8.19;78.08
73665;DHT22;61964;52.052;4.474;2024-02-28T05:46:55;8.21;77.89
73665;DHT22;61964;52.052;4.474;2024-02-28T05:49:21;8.22;77.97
73665;DHT22;61964;52.052;4.474;2024-02-28T05:51:48;8.24;78.07
73665;DHT22;61964;52.052;4.474;2024-02-28T05:54:14;8.21;78.08
73665;DHT22;61964;52.052;4.474;2024-02-28T05:56:40;8.29;77.40
73665;DHT22;61964;52.052;4.474;2024-02-28T05:59:05;8.19;77.86
73665;DHT22;61964;52.052;4.474;2024-02-28T06:01:31;8.12;78.05
73665;DHT22;61964;52.052;4.474;2024-02-28T06:03:57;8.15;78.04
73665;DHT22;61964;52.052;4.474;2024-02-28T06:06:23;8.16;78.14
73665;DHT22;61964;52.052;4.474;2024-02-28T06:08:49;8.18;78.00
73665;DHT22;61964;52.052;4.474;2024-02-28T06:11:15;8.24;78.07
73665;DHT22;61964;52.052;4.474;2024-02-28T06:13:41;8.19;78.21
73665;DHT22;61964;52.052;4.474;2024-02-28T06:16:07;8.18;78.26
73665;DHT22;61964;52.052;4.474;2024-02-28T06:18:33;8.16;78.31
73665;DHT22;61964;52.052;4.474;2024-02-28T06:21:00;8.13;78.44
73665;DHT22;61964;52.052;4.474;2024-02-28T06:23:28;8.10;78.91
73665;DHT22;61964;52.052;4.474;2024-02-28T06:25:54;8.19;78.79
73665;DHT22;61964;52.052;4.474;2024-02-28T06:28:20;8.12;78.88
73665;DHT22;61964;52.052;4.474;2024-02-28T06:30:46;8.16;78.95
73665;DHT22;61964;52.052;4.474;2024-02-28T06:33:13;8.24;78.72
73665;DHT22;61964;52.052;4.474;2024-02-28T06:35:39;8.22;79.02
73665;DHT22;61964;52.052;4.474;2024-02-28T06:38:05;8.19;79.07
73665;DHT22;61964;52.052;4.474;2024-02-28T06:40:30;8.18;79.06
73665;DHT22;61964;52.052;4.474;2024-02-28T06:42:56;8.22;79.13
73665;DHT22;61964;52.052;4.474;2024-02-28T06:45:22;8.25;78.97
73665;DHT22;61964;52.052;4.474;2024-02-28T06:47:48;8.25;79.01
73665;DHT22;61964;52.052;4.474;2024-02-28T06:50:14;8.24;79.18
73665;DHT22;61964;52.052;4.474;2024-02-28T06:52:41;8.21;79.44
73665;DHT22;61964;52.052;4.474;2024-02-28T06:55:07;8.25;79.51
73665;DHT22;61964;52.052;4.474;2024-02-28T06:57:41;8.32;79.31
73665;DHT22;61964;52.052;4.474;2024-02-28T07:00:09;8.30;79.43
73665;DHT22;61964;52.052;4.474;2024-02-28T07:02:35;8.28;79.55
73665;DHT22;61964;52.052;4.474;2024-02-28T07:05:02;8.30;79.27
73665;DHT22;61964;52.052;4.474;2024-02-28T07:07:30;8.29;79.58
73665;DHT22;61964;52.052;4.474;2024-02-28T07:09:57;8.29;79.51
73665;DHT22;61964;52.052;4.474;2024-02-28T07:12:23;8.30;79.69
73665;DHT22;61964;52.052;4.474;2024-02-28T07:14:50;8.35;79.60
73665;DHT22;61964;52.052;4.474;2024-02-28T07:17:16;8.33;79.63
73665;DHT22;61964;52.052;4.474;2024-02-28T07:19:42;8.29;79.90
73665;DHT22;61964;52.052;4.474;2024-02-28T07:22:08;8.35;80.01
73665;DHT22;61964;52.052;4.474;2024-02-28T07:24:34;8.35;79.72
73665;DHT22;61964;52.052;4.474;2024-02-28T07:27:00;8.30;80.13
73665;DHT22;61964;52.052;4.474;2024-02-28T07:29:26;8.29;80.16
73665;DHT22;61964;52.052;4.474;2024-02-28T07:31:51;8.35;80.14
73665;DHT22;61964;52.052;4.474;2024-02-28T07:34:17;8.29;80.54
73665;DHT22;61964;52.052;4.474;2024-02-28T07:36:43;8.26;80.60
73665;DHT22;61964;52.052;4.474;2024-02-28T07:39:09;8.28;80.68
73665;DHT22;61964;52.052;4.474;2024-02-28T07:41:39;8.24;80.93
73665;DHT22;61964;52.052;4.474;2024-02-28T07:44:05;8.25;81.13
73665;DHT22;61964;52.052;4.474;2024-02-28T07:46:32;8.33;80.94
73665;DHT22;61964;52.052;4.474;2024-02-28T07:48:58;8.40;80.70
73665;DHT22;61964;52.052;4.474;2024-02-28T07:51:24;8.33;80.78
73665;DHT22;61964;52.052;4.474;2024-02-28T07:53:50;8.32;81.17
73665;DHT22;61964;52.052;4.474;2024-02-28T07:56:17;8.36;81.09
73665;DHT22;61964;52.052;4.474;2024-02-28T07:58:43;8.42;81.08
73665;DHT22;61964;52.052;4.474;2024-02-28T08:01:09;8.47;80.68
73665;DHT22;61964;52.052;4.474;2024-02-28T08:03:35;8.46;80.91
73665;DHT22;61964;52.052;4.474;2024-02-28T08:06:01;8.52;80.64
73665;DHT22;61964;52.052;4.474;2024-02-28T08:08:26;8.57;80.73
73665;DHT22;61964;52.052;4.474;2024-02-28T08:10:52;8.61;80.77
73665;DHT22;61964;52.052;4.474;2024-02-28T08:13:19;8.67;80.72
73665;DHT22;61964;52.052;4.474;2024-02-28T08:15:44;8.81;80.40
73665;DHT22;61964;52.052;4.474;2024-02-28T08:18:10;8.84;80.10
73665;DHT22;61964;52.052;4.474;2024-02-28T08:20:37;8.80;80.16
73665;DHT22;61964;52.052;4.474;2024-02-28T08:23:04;8.81;80.21
73665;DHT22;61964;52.052;4.474;2024-02-28T08:25:30;8.78;80.35
73665;DHT22;61964;52.052;4.474;2024-02-28T08:27:56;8.88;80.10
73665;DHT22;61964;52.052;4.474;2024-02-28T08:30:22;8.90;79.91
73665;DHT22;61964;52.052;4.474;2024-02-28T08:32:48;8.87;80.17
73665;DHT22;61964;52.052;4.474;2024-02-28T08:35:14;8.88;80.26
73665;DHT22;61964;52.052;4.474;2024-02-28T08:37:40;8.83;80.33
73665;DHT22;61964;52.052;4.474;2024-02-28T08:40:07;8.87;80.29
73665;DHT22;61964;52.052;4.474;2024-02-28T08:42:33;8.91;80.36
73665;DHT22;61964;52.052;4.474;2024-02-28T08:45:00;8.98;80.57
73665;DHT22;61964;52.052;4.474;2024-02-28T08:47:26;9.05;80.64
73665;DHT22;61964;52.052;4.474;2024-02-28T08:49:53;9.17;80.29
73665;DHT22;61964;52.052;4.474;2024-02-28T08:52:20;9.17;80.43
73665;DHT22;61964;52.052;4.474;2024-02-28T08:54:47;9.24;80.52
73665;DHT22;61964;52.052;4.474;2024-02-28T08:57:15;9.22;80.31
73665;DHT22;61964;52.052;4.474;2024-02-28T08:59:41;9.21;80.45
73665;DHT22;61964;52.052;4.474;2024-02-28T09:02:07;9.21;80.16
73665;DHT22;61964;52.052;4.474;2024-02-28T09:04:33;9.22;80.25
73665;DHT22;61964;52.052;4.474;2024-02-28T09:06:59;9.28;80.11
73665;DHT22;61964;52.052;4.474;2024-02-28T09:09:25;9.40;79.88
73665;DHT22;61964;52.052;4.474;2024-02-28T09:11:50;9.45;79.99
73665;DHT22;61964;52.052;4.474;2024-02-28T09:14:16;9.45;79.69
73665;DHT22;61964;52.052;4.474;2024-02-28T09:16:42;9.42;79.66
73665;DHT22;61964;52.052;4.474;2024-02-28T09:19:08;9.49;79.82
73665;DHT22;61964;52.052;4.474;2024-02-28T09:21:34;9.53;79.38
73665;DHT22;61964;52.052;4.474;2024-02-28T09:24:00;9.59;79.22
73665;DHT22;61964;52.052;4.474;2024-02-28T09:26:27;9.76;79.71
73665;DHT22;61964;52.052;4.474;2024-02-28T09:28:53;10.01;79.41
73665;DHT22;61964;52.052;4.474;2024-02-28T09:31:18;10.17;79.21
73665;DHT22;61964;52.052;4.474;2024-02-28T09:33:44;10.24;77.94
73665;DHT22;61964;52.052;4.474;2024-02-28T09:36:12;10.22;77.79
73665;DHT22;61964;52.052;4.474;2024-02-28T09:38:38;10.11;77.61
73665;DHT22;61964;52.052;4.474;2024-02-28T09:41:04;9.99;78.46
73665;DHT22;61964;52.052;4.474;2024-02-28T09:43:31;10.04;78.82
73665;DHT22;61964;52.052;4.474;2024-02-28T09:46:05;10.14;78.89
73665;DHT22;61964;52.052;4.474;2024-02-28T09:48:32;10.37;79.04
73665;DHT22;61964;52.052;4.474;2024-02-28T09:50:59;10.47;78.26
73665;DHT22;61964;52.052;4.474;2024-02-28T09:53:26;10.48;77.47
73665;DHT22;61964;52.052;4.474;2024-02-28T09:55:52;10.30;77.65
73665;DHT22;61964;52.052;4.474;2024-02-28T09:58:19;10.18;78.30
73665;DHT22;61964;52.052;4.474;2024-02-28T10:00:49;10.14;78.73
73665;DHT22;61964;52.052;4.474;2024-02-28T10:03:18;10.21;78.60
73665;DHT22;61964;52.052;4.474;2024-02-28T10:05:48;10.31;78.71
73665;DHT22;61964;52.052;4.474;2024-02-28T10:08:15;10.41;77.95
73665;DHT22;61964;52.052;4.474;2024-02-28T10:10:47;10.44;78.53
73665;DHT22;61964;52.052;4.474;2024-02-28T10:13:16;10.47;77.83
73665;DHT22;61964;52.052;4.474;2024-02-28T10:15:43;10.49;77.86
73665;DHT22;61964;52.052;4.474;2024-02-28T10:18:09;10.47;78.24
73665;DHT22;61964;52.052;4.474;2024-02-28T10:20:35;10.47;78.10
73665;DHT22;61964;52.052;4.474;2024-02-28T10:23:07;10.54;78.13
73665;DHT22;61964;52.052;4.474;2024-02-28T10:25:45;10.67;78.29
73665;DHT22;61964;52.052;4.474;2024-02-28T10:28:12;10.73;77.44
73665;DHT22;61964;52.052;4.474;2024-02-28T10:30:43;10.75;77.25
73665;DHT22;61964;52.052;4.474;2024-02-28T10:33:13;10.61;77.26
73665;DHT22;61964;52.052;4.474;2024-02-28T10:35:40;10.47;77.64
73665;DHT22;61964;52.052;4.474;2024-02-28T10:38:16;10.42;77.89
73665;DHT22;61964;52.052;4.474;2024-02-28T10:40:43;10.36;77.85
73665;DHT22;61964;52.052;4.474;2024-02-28T10:43:10;10.45;77.87
73665;DHT22;61964;52.052;4.474;2024-02-28T10:45:37;10.41;77.93
73665;DHT22;61964;52.052;4.474;2024-02-28T10:48:06;10.40;78.15
73665;DHT22;61964;52.052;4.474;2024-02-28T10:50:33;10.44;78.22
73665;DHT22;61964;52.052;4.474;2024-02-28T10:53:03;10.51;77.81
73665;DHT22;61964;52.052;4.474;2024-02-28T10:55:33;10.67;77.94
73665;DHT22;61964;52.052;4.474;2024-02-28T10:58:07;10.75;77.58
73665;DHT22;61964;52.052;4.474;2024-02-28T11:00:35;10.76;77.49
73665;DHT22;61964;52.052;4.474;2024-02-28T11:03:03;10.73;77.24
73665;DHT22;61964;52.052;4.474;2024-02-28T11:05:42;10.71;77.39
73665;DHT22;61964;52.052;4.474;2024-02-28T11:08:10;10.81;77.50
73665;DHT22;61964;52.052;4.474;2024-02-28T11:10:40;10.92;77.16
73665;DHT22;61964;52.052;4.474;2024-02-28T11:13:07;11.00;77.00
73665;DHT22;61964;52.052;4.474;2024-02-28T11:15:36;10.99;76.43
73665;DHT22;61964;52.052;4.474;2024-02-28T11:18:09;11.09;77.09
73665;DHT22;61964;52.052;4.474;2024-02-28T11:20:35;11.16;76.19
73665;DHT22;61964;52.052;4.474;2024-02-28T11:23:01;11.15;76.30
73665;DHT22;61964;52.052;4.474;2024-02-28T11:25:27;11.20;76.40
73665;DHT22;61964;52.052;4.474;2024-02-28T11:27:53;11.22;76.04
73665;DHT22;61964;52.052;4.474;2024-02-28T11:30:21;11.18;76.29
73665;DHT22;61964;52.052;4.474;2024-02-28T11:32:47;11.29;76.20
73665;DHT22;61964;52.052;4.474;2024-02-28T11:35:13;11.33;76.21
73665;DHT22;61964;52.052;4.474;2024-02-28T11:37:39;11.54;75.71
73665;DHT22;61964;52.052;4.474;2024-02-28T11:40:08;11.71;75.04
73665;DHT22;61964;52.052;4.474;2024-02-28T11:42:35;11.67;74.61
73665;DHT22;61964;52.052;4.474;2024-02-28T11:45:01;11.64;74.79
73665;DHT22;61964;52.052;4.474;2024-02-28T11:47:35;11.68;75.03
73665;DHT22;61964;52.052;4.474;2024-02-28T11:50:02;11.74;74.48
73665;DHT22;61964;52.052;4.474;2024-02-28T11:52:30;11.71;74.53
73665;DHT22;61964;52.052;4.474;2024-02-28T11:54:56;11.64;74.35
73665;DHT22;61964;52.052;4.474;2024-02-28T11:57:22;11.64;75.13
73665;DHT22;61964;52.052;4.474;2024-02-28T11:59:48;11.61;74.57
73665;DHT22;61964;52.052;4.474;2024-02-28T12:02:15;11.57;74.33
73665;DHT22;61964;52.052;4.474;2024-02-28T12:04:42;11.44;74.30
73665;DHT22;61964;52.052;4.474;2024-02-28T12:07:08;11.47;74.87
73665;DHT22;61964;52.052;4.474;2024-02-28T12:09:34;11.29;75.14
73665;DHT22;61964;52.052;4.474;2024-02-28T12:12:01;11.24;75.14
73665;DHT22;61964;52.052;4.474;2024-02-28T12:14:29;11.26;75.53
73665;DHT22;61964;52.052;4.474;2024-02-28T12:16:57;11.18;75.37
73665;DHT22;61964;52.052;4.474;2024-02-28T12:19:24;11.03;75.99
73665;DHT22;61964;52.052;4.474;2024-02-28T12:21:50;11.00;76.18
73665;DHT22;61964;52.052;4.474;2024-02-28T12:24:16;11.00;76.40
73665;DHT22;61964;52.052;4.474;2024-02-28T12:26:42;11.05;76.19
73665;DHT22;61964;52.052;4.474;2024-02-28T12:29:08;10.83;75.85
73665;DHT22;61964;52.052;4.474;2024-02-28T12:31:36;10.76;76.50
73665;DHT22;61964;52.052;4.474;2024-02-28T12:34:02;10.85;76.69
73665;DHT22;61964;52.052;4.474;2024-02-28T12:36:29;10.89;76.35
73665;DHT22;61964;52.052;4.474;2024-02-28T12:38:57;10.88;76.44
73665;DHT22;61964;52.052;4.474;2024-02-28T12:41:28;10.82;76.77
73665;DHT22;61964;52.052;4.474;2024-02-28T12:43:54;10.83;76.96
73665;DHT22;61964;52.052;4.474;2024-02-28T12:46:19;10.91;76.90
73665;DHT22;61964;52.052;4.474;2024-02-28T12:48:45;10.96;76.41
73665;DHT22;61964;52.052;4.474;2024-02-28T12:51:44;11.06;76.58
73665;DHT22;61964;52.052;4.474;2024-02-28T12:54:12;11.08;76.32
73665;DHT22;61964;52.052;4.474;2024-02-28T12:56:42;11.08;76.25
73665;DHT22;61964;52.052;4.474;2024-02-28T12:59:11;11.10;75.97
73665;DHT22;61964;52.052;4.474;2024-02-28T13:01:38;11.10;75.90
73665;DHT22;61964;52.052;4.474;2024-02-28T13:04:04;11.10;76.16
73665;DHT22;61964;52.052;4.474;2024-02-28T13:06:30;11.15;76.11
73665;DHT22;61964;52.052;4.474;2024-02-28T13:08:56;11.13;75.67
73665;DHT22;61964;52.052;4.474;2024-02-28T13:11:23;11.08;76.20
73665;DHT22;61964;52.052;4.474;2024-02-28T13:13:51;11.13;75.77
73665;DHT22;61964;52.052;4.474;2024-02-28T13:16:20;11.12;76.03
73665;DHT22;61964;52.052;4.474;2024-02-28T13:18:47;11.09;75.89
73665;DHT22;61964;52.052;4.474;2024-02-28T13:21:13;11.08;76.25
73665;DHT22;61964;52.052;4.474;2024-02-28T13:23:39;11.15;76.09
73665;DHT22;61964;52.052;4.474;2024-02-28T13:26:06;11.09;75.84
73665;DHT22;61964;52.052;4.474;2024-02-28T13:28:32;11.06;76.26
73665;DHT22;61964;52.052;4.474;2024-02-28T13:31:00;11.06;75.87
73665;DHT22;61964;52.052;4.474;2024-02-28T13:33:26;11.03;76.14
73665;DHT22;61964;52.052;4.474;2024-02-28T13:35:53;10.96;75.96
73665;DHT22;61964;52.052;4.474;2024-02-28T13:38:20;10.91;76.46
73665;DHT22;61964;52.052;4.474;2024-02-28T13:40:47;10.98;76.88
73665;DHT22;61964;52.052;4.474;2024-02-28T13:43:13;11.00;76.07
73665;DHT22;61964;52.052;4.474;2024-02-28T13:45:40;10.95;76.61
73665;DHT22;61964;52.052;4.474;2024-02-28T13:48:19;11.00;76.48
73665;DHT22;61964;52.052;4.474;2024-02-28T13:50:53;11.00;76.49
73665;DHT22;61964;52.052;4.474;2024-02-28T13:53:19;11.03;76.27
73665;DHT22;61964;52.052;4.474;2024-02-28T13:55:45;11.10;76.34
73665;DHT22;61964;52.052;4.474;2024-02-28T13:58:12;11.05;76.02
73665;DHT22;61964;52.052;4.474;2024-02-28T14:00:38;10.99;76.46
73665;DHT22;61964;52.052;4.474;2024-02-28T14:03:05;10.92;76.82
73665;DHT22;61964;52.052;4.474;2024-02-28T14:05:34;10.92;76.88
73665;DHT22;61964;52.052;4.474;2024-02-28T14:08:02;10.91;76.80
73665;DHT22;61964;52.052;4.474;2024-02-28T14:10:34;10.88;77.09
73665;DHT22;61964;52.052;4.474;2024-02-28T14:13:00;10.91;77.00
73665;DHT22;61964;52.052;4.474;2024-02-28T14:15:27;10.93;77.09
73665;DHT22;61964;52.052;4.474;2024-02-28T14:17:53;10.91;77.11
73665;DHT22;61964;52.052;4.474;2024-02-28T14:20:19;10.91;77.27
73665;DHT22;61964;52.052;4.474;2024-02-28T14:22:45;10.91;77.38
73665;DHT22;61964;52.052;4.474;2024-02-28T14:25:15;10.91;77.52
73665;DHT22;61964;52.052;4.474;2024-02-28T14:27:44;10.91;77.47
73665;DHT22;61964;52.052;4.474;2024-02-28T14:30:11;10.88;77.42
73665;DHT22;61964;52.052;4.474;2024-02-28T14:32:38;10.79;77.50
73665;DHT22;61964;52.052;4.474;2024-02-28T14:35:05;10.83;77.69
73665;DHT22;61964;52.052;4.474;2024-02-28T14:37:35;10.85;77.74
73665;DHT22;61964;52.052;4.474;2024-02-28T14:40:03;10.92;77.59
73665;DHT22;61964;52.052;4.474;2024-02-28T14:42:40;10.88;77.83
73665;DHT22;61964;52.052;4.474;2024-02-28T14:45:10;10.88;78.01
73665;DHT22;61964;52.052;4.474;2024-02-28T14:47:37;10.91;77.76
73665;DHT22;61964;52.052;4.474;2024-02-28T14:50:05;10.93;78.02
73665;DHT22;61964;52.052;4.474;2024-02-28T14:52:31;10.98;77.71
73665;DHT22;61964;52.052;4.474;2024-02-28T14:54:57;10.96;77.99
73665;DHT22;61964;52.052;4.474;2024-02-28T14:57:23;11.03;77.66
73665;DHT22;61964;52.052;4.474;2024-02-28T14:59:49;11.03;77.63
73665;DHT22;61964;52.052;4.474;2024-02-28T15:02:15;10.99;77.83
73665;DHT22;61964;52.052;4.474;2024-02-28T15:04:40;10.86;78.30
73665;DHT22;61964;52.052;4.474;2024-02-28T15:07:06;10.89;78.62
73665;DHT22;61964;52.052;4.474;2024-02-28T15:09:32;10.76;79.26
73665;DHT22;61964;52.052;4.474;2024-02-28T15:12:00;10.78;79.59
73665;DHT22;61964;52.052;4.474;2024-02-28T15:14:25;10.79;79.85
73665;DHT22;61964;52.052;4.474;2024-02-28T15:16:51;10.81;80.03
73665;DHT22;61964;52.052;4.474;2024-02-28T15:19:19;10.78;80.08
73665;DHT22;61964;52.052;4.474;2024-02-28T15:21:46;10.81;80.22
73665;DHT22;61964;52.052;4.474;2024-02-28T15:24:12;10.81;80.01
73665;DHT22;61964;52.052;4.474;2024-02-28T15:26:40;10.81;79.92
73665;DHT22;61964;52.052;4.474;2024-02-28T15:29:06;10.88;79.98
73665;DHT22;61964;52.052;4.474;2024-02-28T15:31:32;10.95;79.63
73665;DHT22;61964;52.052;4.474;2024-02-28T15:33:58;10.89;79.87
73665;DHT22;61964;52.052;4.474;2024-02-28T15:36:24;10.93;79.81